sensor_id;sensor_type;location;lat;lon;timestamp;pressure;altitude;pressure_sealevel;temperature;humidity
41688;BME280;27371;42.686;23.362;2023-04-06T00:01:53;162190.31;;;-0.04;71.66
41688;BME280;27371;42.686;23.362;2023-04-06T00:04:19;162170.41;;;-0.12;71.99
41688;BME280;27371;42.686;23.362;2023-04-06T00:06:44;162149.16;;;-0.20;72.17
41688;BME280;27371;42.686;23.362;2023-04-06T00:09:10;162145.22;;;-0.21;71.65
41688;BME280;27371;42.686;23.362;2023-04-06T00:11:36;162147.84;;;-0.20;71.69
41688;BME280;27371;42.686;23.362;2023-04-06T00:14:01;162171.72;;;-0.11;71.39
41688;BME280;27371;42.686;23.362;2023-04-06T00:16:27;162162.44;;;-0.15;71.02
41688;BME280;27371;42.686;23.362;2023-04-06T00:18:53;162181.03;;;-0.08;70.68
41688;BME280;27371;42.686;23.362;2023-04-06T00:21:21;162178.34;;;-0.09;70.54
41688;BME280;27371;42.686;23.362;2023-04-06T00:23:46;162195.63;;;-0.02;70.58
41688;BME280;27371;42.686;23.362;2023-04-06T00:26:13;162199.59;;;-0.01;70.48
41688;BME280;27371;42.686;23.362;2023-04-06T00:28:38;162159.81;;;-0.16;70.26
41688;BME280;27371;42.686;23.362;2023-04-06T00:31:04;162165.06;;;-0.14;70.23
41688;BME280;27371;42.686;23.362;2023-04-06T00:33:30;162223.50;;;0.09;70.04
41688;BME280;27371;42.686;23.362;2023-04-06T00:35:55;162211.56;;;0.04;69.94
41688;BME280;27371;42.686;23.362;2023-04-06T00:38:21;162236.78;;;0.14;70.09
41688;BME280;27371;42.686;23.362;2023-04-06T00:40:47;162248.69;;;0.18;70.01
41688;BME280;27371;42.686;23.362;2023-04-06T00:43:13;162277.91;;;0.30;69.75
41688;BME280;27371;42.686;23.362;2023-04-06T00:45:39;162303.13;;;0.39;69.83
41688;BME280;27371;42.686;23.362;2023-04-06T00:48:06;162295.19;;;0.36;69.20
41688;BME280;27371;42.686;23.362;2023-04-06T00:50:32;162338.97;;;0.53;69.05
41688;BME280;27371;42.686;23.362;2023-04-06T00:53:02;162338.97;;;0.53;68.81
41688;BME280;27371;42.686;23.362;2023-04-06T00:55:28;162346.94;;;0.56;68.64
41688;BME280;27371;42.686;23.362;2023-04-06T00:57:54;162357.53;;;0.60;68.49
41688;BME280;27371;42.686;23.362;2023-04-06T01:00:20;162370.81;;;0.65;68.49
41688;BME280;27371;42.686;23.362;2023-04-06T01:02:46;162390.75;;;0.73;68.34
41688;BME280;27371;42.686;23.362;2023-04-06T01:05:13;162406.69;;;0.79;68.18
41688;BME280;27371;42.686;23.362;2023-04-06T01:07:45;162416.00;;;0.83;67.81
41688;BME280;27371;42.686;23.362;2023-04-06T01:10:10;162413.31;;;0.82;67.40
41688;BME280;27371;42.686;23.362;2023-04-06T01:12:42;162334.97;;;0.52;66.63
41688;BME280;27371;42.686;23.362;2023-04-06T01:15:08;162346.94;;;0.56;66.88
41688;BME280;27371;42.686;23.362;2023-04-06T01:17:35;162312.41;;;0.43;68.27
41688;BME280;27371;42.686;23.362;2023-04-06T01:20:01;162308.47;;;0.41;68.81
41688;BME280;27371;42.686;23.362;2023-04-06T01:22:26;162315.06;;;0.44;69.32
41688;BME280;27371;42.686;23.362;2023-04-06T01:24:52;162307.09;;;0.41;69.21
41688;BME280;27371;42.686;23.362;2023-04-06T01:27:17;162317.75;;;0.45;69.56
41688;BME280;27371;42.686;23.362;2023-04-06T01:29:44;162280.59;;;0.31;69.59
41688;BME280;27371;42.686;23.362;2023-04-06T01:32:10;162272.63;;;0.28;69.60
41688;BME280;27371;42.686;23.362;2023-04-06T01:34:36;162304.47;;;0.40;69.24
41688;BME280;27371;42.686;23.362;2023-04-06T01:37:01;162283.22;;;0.32;69.57
41688;BME280;27371;42.686;23.362;2023-04-06T01:39:27;162305.78;;;0.40;69.57
41688;BME280;27371;42.686;23.362;2023-04-06T01:41:53;162305.78;;;0.40;69.33
41688;BME280;27371;42.686;23.362;2023-04-06T01:44:19;162293.81;;;0.36;69.45
41688;BME280;27371;42.686;23.362;2023-04-06T01:46:49;162293.81;;;0.36;69.99
41688;BME280;27371;42.686;23.362;2023-04-06T01:49:15;162260.66;;;0.23;70.13
41688;BME280;27371;42.686;23.362;2023-04-06T01:51:40;162325.69;;;0.48;69.93
41688;BME280;27371;42.686;23.362;2023-04-06T01:54:06;162300.44;;;0.38;69.16
41688;BME280;27371;42.686;23.362;2023-04-06T01:56:31;162348.25;;;0.57;69.33
41688;BME280;27371;42.686;23.362;2023-04-06T01:58:57;162364.19;;;0.63;69.35
41688;BME280;27371;42.686;23.362;2023-04-06T02:01:24;162386.75;;;0.72;69.32
41688;BME280;27371;42.686;23.362;2023-04-06T02:03:50;162380.16;;;0.69;69.21
41688;BME280;27371;42.686;23.362;2023-04-06T02:06:15;162364.19;;;0.63;69.26
41688;BME280;27371;42.686;23.362;2023-04-06T02:08:41;162393.38;;;0.74;69.12
41688;BME280;27371;42.686;23.362;2023-04-06T02:11:07;162390.75;;;0.73;68.78
41688;BME280;27371;42.686;23.362;2023-04-06T02:13:35;162401.41;;;0.77;69.24
41688;BME280;27371;42.686;23.362;2023-04-06T02:16:01;162410.69;;;0.81;69.95
41688;BME280;27371;42.686;23.362;2023-04-06T02:18:29;162394.75;;;0.75;69.65
41688;BME280;27371;42.686;23.362;2023-04-06T02:20:55;162397.41;;;0.76;69.36
41688;BME280;27371;42.686;23.362;2023-04-06T02:23:21;162386.75;;;0.72;68.97
41688;BME280;27371;42.686;23.362;2023-04-06T02:25:46;162331.03;;;0.50;68.66
41688;BME280;27371;42.686;23.362;2023-04-06T02:28:12;162336.28;;;0.52;69.72
41688;BME280;27371;42.686;23.362;2023-04-06T02:30:37;162319.06;;;0.46;70.28
41688;BME280;27371;42.686;23.362;2023-04-06T02:33:04;162285.84;;;0.33;71.01
41688;BME280;27371;42.686;23.362;2023-04-06T02:35:30;162324.38;;;0.48;71.50
41688;BME280;27371;42.686;23.362;2023-04-06T02:37:56;162320.38;;;0.46;70.89
41688;BME280;27371;42.686;23.362;2023-04-06T02:40:22;162325.69;;;0.48;70.76
41688;BME280;27371;42.686;23.362;2023-04-06T02:42:47;162305.78;;;0.40;70.55
41688;BME280;27371;42.686;23.362;2023-04-06T02:45:13;162299.13;;;0.38;70.29
41688;BME280;27371;42.686;23.362;2023-04-06T02:47:38;162317.75;;;0.45;70.29
41688;BME280;27371;42.686;23.362;2023-04-06T02:50:05;162321.69;;;0.47;69.95
41688;BME280;27371;42.686;23.362;2023-04-06T02:52:31;162341.63;;;0.54;69.90
41688;BME280;27371;42.686;23.362;2023-04-06T02:54:56;162317.75;;;0.45;69.57
41688;BME280;27371;42.686;23.362;2023-04-06T02:57:22;162346.94;;;0.56;69.42
41688;BME280;27371;42.686;23.362;2023-04-06T02:59:47;162321.69;;;0.47;69.37
41688;BME280;27371;42.686;23.362;2023-04-06T03:02:13;162342.94;;;0.55;69.60
41688;BME280;27371;42.686;23.362;2023-04-06T03:04:38;162369.50;;;0.65;69.61
41688;BME280;27371;42.686;23.362;2023-04-06T03:07:04;162311.09;;;0.42;69.00
41688;BME280;27371;42.686;23.362;2023-04-06T03:09:30;162396.06;;;0.75;68.84
41688;BME280;27371;42.686;23.362;2023-04-06T03:11:55;162372.16;;;0.66;68.67
41688;BME280;27371;42.686;23.362;2023-04-06T03:14:21;162378.78;;;0.69;68.58
41688;BME280;27371;42.686;23.362;2023-04-06T03:16:48;162404.03;;;0.78;68.35
41688;BME280;27371;42.686;23.362;2023-04-06T03:19:14;162392.06;;;0.74;68.32
41688;BME280;27371;42.686;23.362;2023-04-06T03:21:46;162419.97;;;0.84;68.39
41688;BME280;27371;42.686;23.362;2023-04-06T03:24:12;162416.00;;;0.83;68.11
41688;BME280;27371;42.686;23.362;2023-04-06T03:26:39;162442.53;;;0.93;67.65
41688;BME280;27371;42.686;23.362;2023-04-06T03:29:05;162441.22;;;0.93;67.43
41688;BME280;27371;42.686;23.362;2023-04-06T03:31:30;162443.84;;;0.94;66.81
41688;BME280;27371;42.686;23.362;2023-04-06T03:33:57;162417.31;;;0.83;66.57
41688;BME280;27371;42.686;23.362;2023-04-06T03:36:22;162361.53;;;0.62;67.00
41688;BME280;27371;42.686;23.362;2023-04-06T03:38:48;162354.91;;;0.59;67.87
41688;BME280;27371;42.686;23.362;2023-04-06T03:41:20;162368.19;;;0.64;68.18
41688;BME280;27371;42.686;23.362;2023-04-06T03:43:46;162365.56;;;0.63;67.98
41688;BME280;27371;42.686;23.362;2023-04-06T03:46:11;162374.81;;;0.67;67.50
41688;BME280;27371;42.686;23.362;2023-04-06T03:48:37;162346.94;;;0.56;68.00
41688;BME280;27371;42.686;23.362;2023-04-06T03:51:03;162348.25;;;0.57;67.82
41688;BME280;27371;42.686;23.362;2023-04-06T03:53:29;162348.25;;;0.57;68.17
41688;BME280;27371;42.686;23.362;2023-04-06T03:55:55;162349.56;;;0.57;68.17
41688;BME280;27371;42.686;23.362;2023-04-06T03:58:20;162378.78;;;0.69;67.85
41688;BME280;27371;42.686;23.362;2023-04-06T04:00:46;162341.63;;;0.54;68.87
41688;BME280;27371;42.686;23.362;2023-04-06T04:03:11;162393.38;;;0.74;69.32
41688;BME280;27371;42.686;23.362;2023-04-06T04:05:37;162401.41;;;0.77;68.97
41688;BME280;27371;42.686;23.362;2023-04-06T04:08:04;162409.38;;;0.80;69.27
41688;BME280;27371;42.686;23.362;2023-04-06T04:10:30;162402.72;;;0.78;69.41
41688;BME280;27371;42.686;23.362;2023-04-06T04:12:57;162401.41;;;0.77;69.75
41688;BME280;27371;42.686;23.362;2023-04-06T04:15:22;162518.25;;;1.22;72.02
41688;BME280;27371;42.686;23.362;2023-04-06T04:17:47;162538.19;;;1.30;70.00
41688;BME280;27371;42.686;23.362;2023-04-06T04:20:15;162515.56;;;1.21;68.35
41688;BME280;27371;42.686;23.362;2023-04-06T04:22:41;162499.63;;;1.15;68.18
41688;BME280;27371;42.686;23.362;2023-04-06T04:25:13;162515.56;;;1.21;68.11
41688;BME280;27371;42.686;23.362;2023-04-06T04:27:39;162471.75;;;1.04;68.89
41688;BME280;27371;42.686;23.362;2023-04-06T04:30:05;162489.03;;;1.11;68.84
41688;BME280;27371;42.686;23.362;2023-04-06T04:32:31;162470.41;;;1.04;68.63
41688;BME280;27371;42.686;23.362;2023-04-06T04:34:57;162481.06;;;1.08;68.04
41688;BME280;27371;42.686;23.362;2023-04-06T04:37:22;162443.84;;;0.94;67.56
41688;BME280;27371;42.686;23.362;2023-04-06T04:39:48;162470.41;;;1.04;66.87
41688;BME280;27371;42.686;23.362;2023-04-06T04:42:13;162490.34;;;1.11;66.80
41688;BME280;27371;42.686;23.362;2023-04-06T04:44:39;162489.03;;;1.11;67.18
41688;BME280;27371;42.686;23.362;2023-04-06T04:47:07;162520.88;;;1.23;67.42
41688;BME280;27371;42.686;23.362;2023-04-06T04:49:43;162550.09;;;1.34;67.14
41688;BME280;27371;42.686;23.362;2023-04-06T04:52:14;162566.09;;;1.41;67.26
41688;BME280;27371;42.686;23.362;2023-04-06T04:54:40;162554.09;;;1.36;66.98
41688;BME280;27371;42.686;23.362;2023-04-06T04:57:06;162563.41;;;1.40;66.79
41688;BME280;27371;42.686;23.362;2023-04-06T04:59:33;162572.69;;;1.43;66.55
41688;BME280;27371;42.686;23.362;2023-04-06T05:01:58;162582.00;;;1.47;66.37
41688;BME280;27371;42.686;23.362;2023-04-06T05:04:24;162555.44;;;1.37;65.74
41688;BME280;27371;42.686;23.362;2023-04-06T05:06:50;162616.56;;;1.60;65.77
41688;BME280;27371;42.686;23.362;2023-04-06T05:09:15;162593.94;;;1.51;65.11
41688;BME280;27371;42.686;23.362;2023-04-06T05:11:42;162530.22;;;1.27;65.46
41688;BME280;27371;42.686;23.362;2023-04-06T05:14:08;162516.94;;;1.22;66.47
41688;BME280;27371;42.686;23.362;2023-04-06T05:16:34;162506.28;;;1.18;67.22
41688;BME280;27371;42.686;23.362;2023-04-06T05:18:59;162491.66;;;1.12;67.00
41688;BME280;27371;42.686;23.362;2023-04-06T05:21:25;162462.47;;;1.01;67.19
41688;BME280;27371;42.686;23.362;2023-04-06T05:23:54;162532.84;;;1.28;67.15
41688;BME280;27371;42.686;23.362;2023-04-06T05:26:20;162548.78;;;1.34;66.83
41688;BME280;27371;42.686;23.362;2023-04-06T05:28:47;162567.41;;;1.41;66.68
41688;BME280;27371;42.686;23.362;2023-04-06T05:31:13;162572.69;;;1.43;66.74
41688;BME280;27371;42.686;23.362;2023-04-06T05:33:39;162578.00;;;1.45;66.71
41688;BME280;27371;42.686;23.362;2023-04-06T05:36:05;162548.78;;;1.34;66.84
41688;BME280;27371;42.686;23.362;2023-04-06T05:38:32;162551.41;;;1.35;66.97
41688;BME280;27371;42.686;23.362;2023-04-06T05:40:58;162507.59;;;1.18;67.77
41688;BME280;27371;42.686;23.362;2023-04-06T05:43:30;162490.34;;;1.11;68.36
41688;BME280;27371;42.686;23.362;2023-04-06T05:45:55;162469.09;;;1.03;68.70
41688;BME280;27371;42.686;23.362;2023-04-06T05:48:21;162405.34;;;0.79;68.90
41688;BME280;27371;42.686;23.362;2023-04-06T05:50:50;162466.47;;;1.02;69.23
41688;BME280;27371;42.686;23.362;2023-04-06T05:53:16;162461.13;;;1.00;69.69
41688;BME280;27371;42.686;23.362;2023-04-06T05:55:41;162520.88;;;1.23;69.58
41688;BME280;27371;42.686;23.362;2023-04-06T05:58:07;162562.06;;;1.39;69.25
41688;BME280;27371;42.686;23.362;2023-04-06T06:00:32;162584.66;;;1.48;68.77
41688;BME280;27371;42.686;23.362;2023-04-06T06:02:58;162562.06;;;1.39;68.51
41688;BME280;27371;42.686;23.362;2023-04-06T06:05:24;162531.53;;;1.27;68.56
41688;BME280;27371;42.686;23.362;2023-04-06T06:07:49;162516.94;;;1.22;68.67
41688;BME280;27371;42.686;23.362;2023-04-06T06:10:15;162600.56;;;1.54;68.63
41688;BME280;27371;42.686;23.362;2023-04-06T06:12:40;162629.81;;;1.65;68.71
41688;BME280;27371;42.686;23.362;2023-04-06T06:15:06;162564.72;;;1.40;68.17
41688;BME280;27371;42.686;23.362;2023-04-06T06:17:32;162548.78;;;1.34;69.31
41688;BME280;27371;42.686;23.362;2023-04-06T06:19:58;162512.91;;;1.20;70.27
41688;BME280;27371;42.686;23.362;2023-04-06T06:22:23;162508.97;;;1.19;70.90
41688;BME280;27371;42.686;23.362;2023-04-06T06:24:49;162522.19;;;1.24;70.37
41688;BME280;27371;42.686;23.362;2023-04-06T06:27:15;162523.56;;;1.24;70.01
41688;BME280;27371;42.686;23.362;2023-04-06T06:29:48;162543.47;;;1.32;70.00
41688;BME280;27371;42.686;23.362;2023-04-06T06:32:14;162576.69;;;1.45;69.38
41688;BME280;27371;42.686;23.362;2023-04-06T06:34:40;162607.22;;;1.56;68.88
41688;BME280;27371;42.686;23.362;2023-04-06T06:37:06;162625.84;;;1.64;68.65
41688;BME280;27371;42.686;23.362;2023-04-06T06:39:31;162652.44;;;1.74;68.17
41688;BME280;27371;42.686;23.362;2023-04-06T06:41:57;162682.97;;;1.86;67.55
41688;BME280;27371;42.686;23.362;2023-04-06T06:44:25;162669.69;;;1.81;67.47
41688;BME280;27371;42.686;23.362;2023-04-06T06:46:51;162716.16;;;1.98;67.57
41688;BME280;27371;42.686;23.362;2023-04-06T06:49:17;162744.09;;;2.09;66.90
41688;BME280;27371;42.686;23.362;2023-04-06T06:51:46;162730.84;;;2.04;66.49
41688;BME280;27371;42.686;23.362;2023-04-06T06:54:12;162818.53;;;2.38;66.31
41688;BME280;27371;42.686;23.362;2023-04-06T06:56:42;162847.78;;;2.49;66.14
41688;BME280;27371;42.686;23.362;2023-04-06T06:59:08;162867.75;;;2.57;65.24
41688;BME280;27371;42.686;23.362;2023-04-06T07:01:34;162886.31;;;2.64;65.20
41688;BME280;27371;42.686;23.362;2023-04-06T07:04:00;162931.56;;;2.81;65.13
41688;BME280;27371;42.686;23.362;2023-04-06T07:06:25;162971.44;;;2.97;64.56
41688;BME280;27371;42.686;23.362;2023-04-06T07:08:52;163023.28;;;3.17;64.25
41688;BME280;27371;42.686;23.362;2023-04-06T07:11:18;163075.19;;;3.37;63.57
41688;BME280;27371;42.686;23.362;2023-04-06T07:13:43;163156.31;;;3.68;62.45
41688;BME280;27371;42.686;23.362;2023-04-06T07:16:09;163170.97;;;3.73;61.57
41688;BME280;27371;42.686;23.362;2023-04-06T07:18:34;163127.06;;;3.56;61.08
41688;BME280;27371;42.686;23.362;2023-04-06T07:21:00;163073.81;;;3.36;60.97
41688;BME280;27371;42.686;23.362;2023-04-06T07:23:25;163132.41;;;3.59;61.65
41688;BME280;27371;42.686;23.362;2023-04-06T07:25:51;163188.22;;;3.80;61.51
41688;BME280;27371;42.686;23.362;2023-04-06T07:28:20;163245.44;;;4.02;60.84
41688;BME280;27371;42.686;23.362;2023-04-06T07:30:47;163288.03;;;4.18;59.38
41688;BME280;27371;42.686;23.362;2023-04-06T07:33:12;163280.06;;;4.15;58.70
41688;BME280;27371;42.686;23.362;2023-04-06T07:35:50;163288.03;;;4.18;58.58
41688;BME280;27371;42.686;23.362;2023-04-06T07:38:16;163301.34;;;4.23;58.79
41688;BME280;27371;42.686;23.362;2023-04-06T07:40:42;163282.75;;;4.16;59.68
41688;BME280;27371;42.686;23.362;2023-04-06T07:43:07;163282.75;;;4.16;59.17
41688;BME280;27371;42.686;23.362;2023-04-06T07:45:33;163260.09;;;4.08;58.75
41688;BME280;27371;42.686;23.362;2023-04-06T07:48:04;163264.09;;;4.09;58.69
41688;BME280;27371;42.686;23.362;2023-04-06T07:50:30;163308.03;;;4.26;58.48
41688;BME280;27371;42.686;23.362;2023-04-06T07:52:56;163371.91;;;4.51;58.42
41688;BME280;27371;42.686;23.362;2023-04-06T07:55:22;163422.50;;;4.70;57.42
41688;BME280;27371;42.686;23.362;2023-04-06T07:57:48;163453.09;;;4.82;56.69
41688;BME280;27371;42.686;23.362;2023-04-06T08:00:14;163478.44;;;4.91;56.53
41688;BME280;27371;42.686;23.362;2023-04-06T08:02:39;163533.00;;;5.12;56.43
41688;BME280;27371;42.686;23.362;2023-04-06T08:05:07;163570.34;;;5.27;55.49
41688;BME280;27371;42.686;23.362;2023-04-06T08:07:33;163611.59;;;5.43;54.88
41688;BME280;27371;42.686;23.362;2023-04-06T08:09:58;163678.22;;;5.68;55.10
41688;BME280;27371;42.686;23.362;2023-04-06T08:12:24;163711.50;;;5.81;54.38
41688;BME280;27371;42.686;23.362;2023-04-06T08:14:53;163790.16;;;6.11;53.45
41688;BME280;27371;42.686;23.362;2023-04-06T08:17:19;163787.53;;;6.10;52.25
41688;BME280;27371;42.686;23.362;2023-04-06T08:19:45;163760.84;;;6.00;52.34
41688;BME280;27371;42.686;23.362;2023-04-06T08:22:11;163724.81;;;5.86;51.62
41688;BME280;27371;42.686;23.362;2023-04-06T08:24:36;163707.53;;;5.79;51.59
41688;BME280;27371;42.686;23.362;2023-04-06T08:27:02;163706.19;;;5.79;52.01
41688;BME280;27371;42.686;23.362;2023-04-06T08:29:28;163748.84;;;5.95;51.93
41688;BME280;27371;42.686;23.362;2023-04-06T08:31:53;163796.84;;;6.14;51.22
41688;BME280;27371;42.686;23.362;2023-04-06T08:34:19;163826.16;;;6.25;50.74
41688;BME280;27371;42.686;23.362;2023-04-06T08:36:44;163815.50;;;6.21;51.34
41688;BME280;27371;42.686;23.362;2023-04-06T08:39:11;163851.50;;;6.35;50.69
41688;BME280;27371;42.686;23.362;2023-04-06T08:41:36;163894.16;;;6.51;50.05
41688;BME280;27371;42.686;23.362;2023-04-06T08:44:08;163890.13;;;6.50;49.56
41688;BME280;27371;42.686;23.362;2023-04-06T08:46:34;163936.81;;;6.67;49.92
41688;BME280;27371;42.686;23.362;2023-04-06T08:49:02;164032.78;;;7.04;48.28
41688;BME280;27371;42.686;23.362;2023-04-06T08:51:29;164078.09;;;7.22;48.63
41688;BME280;27371;42.686;23.362;2023-04-06T08:54:00;164048.78;;;7.10;48.25
41688;BME280;27371;42.686;23.362;2023-04-06T08:56:26;164016.78;;;6.98;48.96
41688;BME280;27371;42.686;23.362;2023-04-06T08:58:54;163971.44;;;6.81;48.37
41688;BME280;27371;42.686;23.362;2023-04-06T09:01:23;163942.09;;;6.69;48.54
41688;BME280;27371;42.686;23.362;2023-04-06T09:03:51;163919.44;;;6.61;49.18
41688;BME280;27371;42.686;23.362;2023-04-06T09:06:21;163987.47;;;6.87;48.92
41688;BME280;27371;42.686;23.362;2023-04-06T09:08:46;163990.13;;;6.88;47.63
41688;BME280;27371;42.686;23.362;2023-04-06T09:11:13;164000.81;;;6.92;47.52
41688;BME280;27371;42.686;23.362;2023-04-06T09:13:53;164056.78;;;7.13;47.89
41688;BME280;27371;42.686;23.362;2023-04-06T09:16:20;164088.81;;;7.26;47.60
41688;BME280;27371;42.686;23.362;2023-04-06T09:18:46;164116.81;;;7.36;46.76
41688;BME280;27371;42.686;23.362;2023-04-06T09:21:12;164108.81;;;7.33;46.32
41688;BME280;27371;42.686;23.362;2023-04-06T09:23:38;164056.78;;;7.13;46.99
41688;BME280;27371;42.686;23.362;2023-04-06T09:26:12;164082.13;;;7.23;46.03
41688;BME280;27371;42.686;23.362;2023-04-06T09:31:11;164103.47;;;7.31;47.04
41688;BME280;27371;42.686;23.362;2023-04-06T09:33:39;164148.81;;;7.49;47.01
41688;BME280;27371;42.686;23.362;2023-04-06T09:36:06;164160.81;;;7.53;47.03
41688;BME280;27371;42.686;23.362;2023-04-06T09:38:31;164254.19;;;7.89;46.48
41688;BME280;27371;42.686;23.362;2023-04-06T09:40:57;164218.19;;;7.75;45.78
41688;BME280;27371;42.686;23.362;2023-04-06T09:43:28;164180.84;;;7.61;44.93
41688;BME280;27371;42.686;23.362;2023-04-06T09:45:55;164202.19;;;7.69;45.49
41688;BME280;27371;42.686;23.362;2023-04-06T09:48:22;164236.81;;;7.82;46.01
41688;BME280;27371;42.686;23.362;2023-04-06T09:50:50;164240.84;;;7.84;45.51
41688;BME280;27371;42.686;23.362;2023-04-06T09:53:21;164156.78;;;7.52;46.00
41688;BME280;27371;42.686;23.362;2023-04-06T09:55:52;164110.13;;;7.34;45.96
41688;BME280;27371;42.686;23.362;2023-04-06T09:58:23;164135.44;;;7.44;46.50
41688;BME280;27371;42.686;23.362;2023-04-06T10:05:52;164156.78;;;7.52;45.91
41688;BME280;27371;42.686;23.362;2023-04-06T10:08:20;164106.13;;;7.32;45.88
41688;BME280;27371;42.686;23.362;2023-04-06T10:10:48;164091.44;;;7.27;45.96
41688;BME280;27371;42.686;23.362;2023-04-06T10:13:16;164130.16;;;7.42;45.74
41688;BME280;27371;42.686;23.362;2023-04-06T10:15:42;164058.13;;;7.14;45.55
41688;BME280;27371;42.686;23.362;2023-04-06T10:18:08;164024.78;;;7.01;45.92
41688;BME280;27371;42.686;23.362;2023-04-06T10:20:46;163988.78;;;6.87;46.04
41688;BME280;27371;42.686;23.362;2023-04-06T10:23:19;163995.47;;;6.90;45.79
41688;BME280;27371;42.686;23.362;2023-04-06T10:25:56;164016.78;;;6.98;46.70
41688;BME280;27371;42.686;23.362;2023-04-06T10:28:23;164022.13;;;7.00;46.43
41688;BME280;27371;42.686;23.362;2023-04-06T10:30:49;163972.81;;;6.81;46.46
41688;BME280;27371;42.686;23.362;2023-04-06T10:33:15;163910.13;;;6.57;46.99
41688;BME280;27371;42.686;23.362;2023-04-06T10:35:41;163855.47;;;6.36;47.18
41688;BME280;27371;42.686;23.362;2023-04-06T10:38:07;163863.44;;;6.39;48.13
41688;BME280;27371;42.686;23.362;2023-04-06T10:40:36;163862.13;;;6.39;46.77
41688;BME280;27371;42.686;23.362;2023-04-06T10:45:35;163918.13;;;6.60;47.11
41688;BME280;27371;42.686;23.362;2023-04-06T10:48:12;163895.47;;;6.52;46.23
41688;BME280;27371;42.686;23.362;2023-04-06T10:50:39;163967.47;;;6.79;45.92
41688;BME280;27371;42.686;23.362;2023-04-06T10:53:05;163986.13;;;6.86;46.25
41688;BME280;27371;42.686;23.362;2023-04-06T10:55:31;163966.13;;;6.79;46.60
41688;BME280;27371;42.686;23.362;2023-04-06T10:57:57;163940.78;;;6.69;46.70
41688;BME280;27371;42.686;23.362;2023-04-06T11:00:23;164003.44;;;6.93;46.98
41688;BME280;27371;42.686;23.362;2023-04-06T11:02:48;163990.13;;;6.88;46.42
41688;BME280;27371;42.686;23.362;2023-04-06T11:05:14;164010.13;;;6.96;46.96
41688;BME280;27371;42.686;23.362;2023-04-06T11:07:40;163971.44;;;6.81;46.48
41688;BME280;27371;42.686;23.362;2023-04-06T11:10:07;163898.13;;;6.53;46.43
41688;BME280;27371;42.686;23.362;2023-04-06T11:12:33;163962.09;;;6.77;46.01
41688;BME280;27371;42.686;23.362;2023-04-06T11:15:03;164002.13;;;6.93;46.43
41688;BME280;27371;42.686;23.362;2023-04-06T11:17:36;163995.47;;;6.90;46.71
41688;BME280;27371;42.686;23.362;2023-04-06T11:20:03;163960.78;;;6.77;46.42
41688;BME280;27371;42.686;23.362;2023-04-06T11:22:31;163935.44;;;6.67;46.32
41688;BME280;27371;42.686;23.362;2023-04-06T11:25:09;163938.13;;;6.68;46.13
41688;BME280;27371;42.686;23.362;2023-04-06T11:27:42;163967.47;;;6.79;46.26
41688;BME280;27371;42.686;23.362;2023-04-06T11:30:09;163991.44;;;6.88;46.08
41688;BME280;27371;42.686;23.362;2023-04-06T11:32:45;164004.78;;;6.94;46.13
41688;BME280;27371;42.686;23.362;2023-04-06T11:35:14;164052.78;;;7.12;46.18
41688;BME280;27371;42.686;23.362;2023-04-06T11:37:44;164024.78;;;7.01;45.26
41688;BME280;27371;42.686;23.362;2023-04-06T11:40:11;163966.13;;;6.79;45.99
41688;BME280;27371;42.686;23.362;2023-04-06T11:42:36;163947.44;;;6.72;46.68
41688;BME280;27371;42.686;23.362;2023-04-06T11:45:02;163951.47;;;6.73;46.72
41688;BME280;27371;42.686;23.362;2023-04-06T11:47:33;163942.09;;;6.69;46.47
41688;BME280;27371;42.686;23.362;2023-04-06T11:50:09;163944.81;;;6.71;47.17
41688;BME280;27371;42.686;23.362;2023-04-06T11:52:35;163947.44;;;6.72;46.59
41688;BME280;27371;42.686;23.362;2023-04-06T11:55:23;163958.13;;;6.76;46.50
41688;BME280;27371;42.686;23.362;2023-04-06T11:57:49;163979.47;;;6.84;46.24
41688;BME280;27371;42.686;23.362;2023-04-06T12:00:15;163982.13;;;6.85;46.31
41688;BME280;27371;42.686;23.362;2023-04-06T12:02:45;163988.78;;;6.87;46.05
41688;BME280;27371;42.686;23.362;2023-04-06T12:05:11;163990.13;;;6.88;46.42
41688;BME280;27371;42.686;23.362;2023-04-06T12:07:37;163946.13;;;6.71;45.87
41688;BME280;27371;42.686;23.362;2023-04-06T12:10:03;163938.13;;;6.68;46.08
41688;BME280;27371;42.686;23.362;2023-04-06T12:12:29;163880.81;;;6.46;47.10
41688;BME280;27371;42.686;23.362;2023-04-06T12:14:55;163899.44;;;6.53;46.78
41688;BME280;27371;42.686;23.362;2023-04-06T12:17:21;163918.13;;;6.60;46.92
41688;BME280;27371;42.686;23.362;2023-04-06T12:19:46;163907.47;;;6.56;46.95
41688;BME280;27371;42.686;23.362;2023-04-06T12:22:12;163923.47;;;6.62;46.35
41688;BME280;27371;42.686;23.362;2023-04-06T12:24:39;163908.81;;;6.57;46.36
41688;BME280;27371;42.686;23.362;2023-04-06T12:27:04;163916.81;;;6.60;46.72
41688;BME280;27371;42.686;23.362;2023-04-06T12:29:30;163883.47;;;6.47;46.42
41688;BME280;27371;42.686;23.362;2023-04-06T12:31:55;163900.81;;;6.54;46.49
41688;BME280;27371;42.686;23.362;2023-04-06T12:34:21;163911.47;;;6.58;46.30
41688;BME280;27371;42.686;23.362;2023-04-06T12:36:47;163879.50;;;6.45;46.14
41688;BME280;27371;42.686;23.362;2023-04-06T12:39:12;163926.13;;;6.63;45.85
41688;BME280;27371;42.686;23.362;2023-04-06T12:41:38;163906.09;;;6.56;46.03
41688;BME280;27371;42.686;23.362;2023-04-06T12:44:06;163791.50;;;6.12;46.75
41688;BME280;27371;42.686;23.362;2023-04-06T12:46:31;163754.19;;;5.97;47.08
41688;BME280;27371;42.686;23.362;2023-04-06T12:48:57;163732.81;;;5.89;47.32
41688;BME280;27371;42.686;23.362;2023-04-06T12:51:26;163771.53;;;6.04;47.15
41688;BME280;27371;42.686;23.362;2023-04-06T12:53:53;163782.19;;;6.08;47.12
41688;BME280;27371;42.686;23.362;2023-04-06T12:56:21;163764.88;;;6.01;46.80
41688;BME280;27371;42.686;23.362;2023-04-06T12:58:47;163788.84;;;6.11;46.98